Time;durP1;ratioP1;P1;durP2;ratioP2;P2;SDS_P1;SDS_P2;PMS_P1;PMS_P2;Temp;Humidity;BMP_temperature;BMP_pressure;BME280_temperature;BME280_humidity;BME280_pressure;Samples;Min_cycle;Max_cycle;Signal;HPM_P1;HPM_P2
2021/11/13 00:00:43;;;;;;;7.93;3.70;;;9.40;99.90;;;;;;5012181;28;21025;-68
2021/11/13 00:03:11;;;;;;;3.50;2.90;;;9.40;99.90;;;;;;5011553;28;20467;-69
2021/11/13 00:05:39;;;;;;;6.97;4.33;;;9.40;99.90;;;;;;5010331;28;21201;-68
2021/11/13 00:08:06;;;;;;;8.80;5.03;;;9.40;99.90;;;;;;5010485;28;20481;-69
2021/11/13 00:10:34;;;;;;;6.07;4.17;;;9.30;99.90;;;;;;5017106;28;20550;-68
2021/11/13 00:13:05;;;;;;;15.27;3.20;;;9.20;99.90;;;;;;5011200;28;20460;-70
2021/11/13 00:15:32;;;;;;;5.47;3.87;;;9.20;99.90;;;;;;5014790;28;20577;-70
2021/11/13 00:18:00;;;;;;;8.40;3.87;;;9.30;99.90;;;;;;5013835;28;20503;-67
2021/11/13 00:20:27;;;;;;;7.03;4.17;;;9.30;99.90;;;;;;5013095;28;20495;-67
2021/11/13 00:22:55;;;;;;;3.27;2.70;;;9.20;99.90;;;;;;5014956;28;20872;-68
2021/11/13 00:25:23;;;;;;;5.83;4.53;;;9.10;99.90;;;;;;5015249;28;20522;-68
2021/11/13 00:27:52;;;;;;;6.40;4.17;;;9.00;99.90;;;;;;5007476;28;20497;-68
2021/11/13 00:30:19;;;;;;;10.73;4.50;;;9.00;99.90;;;;;;5009633;28;20518;-67
2021/11/13 00:32:46;;;;;;;7.37;5.23;;;9.10;99.90;;;;;;5013037;28;20489;-69
2021/11/13 00:35:14;;;;;;;5.67;3.90;;;9.10;99.90;;;;;;5012863;28;21026;-69
2021/11/13 00:37:42;;;;;;;4.17;3.10;;;9.10;99.90;;;;;;5017753;28;20596;-68
2021/11/13 00:40:10;;;;;;;8.00;4.47;;;9.20;99.90;;;;;;5011224;28;20580;-69
2021/11/13 00:42:37;;;;;;;7.00;4.60;;;9.30;99.90;;;;;;5007754;28;21043;-68
2021/11/13 00:45:07;;;;;;;6.03;4.50;;;9.40;99.90;;;;;;5012629;28;20439;-73
2021/11/13 00:47:34;;;;;;;4.00;2.67;;;9.20;99.90;;;;;;5015227;28;20503;-68
2021/11/13 00:50:01;;;;;;;7.40;4.37;;;9.20;99.90;;;;;;5019910;28;20530;-68
2021/11/13 00:52:28;;;;;;;7.10;3.57;;;9.10;99.90;;;;;;5016100;28;20903;-68
2021/11/13 00:54:55;;;;;;;7.07;4.30;;;9.20;99.90;;;;;;5013359;28;20459;-70
2021/11/13 00:57:22;;;;;;;9.17;4.20;;;9.10;99.90;;;;;;5020542;28;20464;-71
2021/11/13 00:59:49;;;;;;;3.77;2.83;;;9.20;99.90;;;;;;5025901;28;21416;-68
2021/11/13 01:02:18;;;;;;;4.80;3.00;;;9.40;99.90;;;;;;5012002;28;21207;-71
2021/11/13 01:04:45;;;;;;;4.73;3.37;;;9.30;99.90;;;;;;5008122;28;20946;-70
2021/11/13 01:07:12;;;;;;;8.13;4.50;;;9.00;99.90;;;;;;5012901;28;20555;-68
2021/11/13 01:09:39;;;;;;;8.03;3.83;;;9.10;99.90;;;;;;5014402;28;20983;-70
2021/11/13 01:12:07;;;;;;;14.83;13.30;;;9.00;99.90;;;;;;5008678;28;20485;-69
2021/11/13 01:14:40;;;;;;;10.77;4.77;;;9.00;99.90;;;;;;5014213;28;20456;-70
2021/11/13 01:17:07;;;;;;;5.17;2.80;;;9.00;99.90;;;;;;5016263;28;20538;-68
2021/11/13 01:19:36;;;;;;;4.80;3.60;;;9.00;99.90;;;;;;5018588;28;20484;-69
2021/11/13 01:22:04;;;;;;;8.27;4.00;;;9.10;99.90;;;;;;5010601;28;20698;-71
2021/11/13 01:24:31;;;;;;;7.30;4.83;;;9.20;99.90;;;;;;5013146;28;20461;-69
2021/11/13 01:26:58;;;;;;;4.67;3.30;;;9.10;99.90;;;;;;5015617;28;20553;-71
2021/11/13 01:29:25;;;;;;;11.00;5.90;;;9.20;99.90;;;;;;5018011;28;20604;-71
2021/11/13 01:31:53;;;;;;;6.70;4.40;;;9.20;99.90;;;;;;5014641;28;21056;-69
2021/11/13 01:34:20;;;;;;;9.30;5.17;;;9.10;99.90;;;;;;5006727;28;20517;-70
2021/11/13 01:36:48;;;;;;;4.70;2.93;;;9.10;99.90;;;;;;5021692;28;20495;-69
2021/11/13 01:39:16;;;;;;;7.13;5.37;;;9.10;99.90;;;;;;5016041;28;20464;-69
2021/11/13 01:41:43;;;;;;;7.27;4.00;;;9.10;99.90;;;;;;5011643;28;20456;-68
2021/11/13 01:44:10;;;;;;;4.63;2.97;;;9.30;99.90;;;;;;5014482;28;20460;-70
2021/11/13 01:46:38;;;;;;;4.40;4.10;;;9.00;99.90;;;;;;5019229;28;20431;-69
2021/11/13 01:49:06;;;;;;;6.27;4.10;;;9.10;99.90;;;;;;5002971;28;20451;-70
2021/11/13 01:51:36;;;;;;;8.23;4.73;;;9.00;99.90;;;;;;5012362;28;20443;-68
2021/11/13 01:54:07;;;;;;;4.27;3.63;;;8.90;99.90;;;;;;5009634;28;21056;-67
2021/11/13 01:56:35;;;;;;;6.47;3.80;;;8.90;99.90;;;;;;5011944;28;20415;-68
2021/11/13 01:59:04;;;;;;;6.70;4.30;;;8.90;99.90;;;;;;5004313;28;20490;-70
2021/11/13 02:01:31;;;;;;;5.40;2.87;;;8.90;99.90;;;;;;5013097;28;20476;-69
2021/11/13 02:03:58;;;;;;;4.27;3.73;;;9.00;99.90;;;;;;5005382;28;21008;-69
2021/11/13 02:06:25;;;;;;;5.13;3.30;;;9.00;99.90;;;;;;5013401;28;20435;-68
2021/11/13 02:08:52;;;;;;;3.00;1.87;;;9.00;99.90;;;;;;5012369;28;20446;-72
2021/11/13 02:11:23;;;;;;;5.90;4.33;;;8.90;99.90;;;;;;5003125;28;20419;-71
2021/11/13 02:13:51;;;;;;;5.67;4.27;;;8.90;99.90;;;;;;5014091;28;21129;-68
2021/11/13 02:16:18;;;;;;;5.13;3.50;;;9.00;99.90;;;;;;5020581;28;20551;-69
2021/11/13 02:18:46;;;;;;;6.33;4.77;;;9.10;99.90;;;;;;4999149;28;20572;-68
2021/11/13 02:21:15;;;;;;;7.33;3.10;;;9.20;99.90;;;;;;5002261;28;20480;-70
2021/11/13 02:23:44;;;;;;;7.53;3.87;;;9.00;99.90;;;;;;5015347;28;20439;-69
2021/11/13 02:26:12;;;;;;;5.90;3.43;;;9.00;99.90;;;;;;5017116;28;20444;-68
2021/11/13 02:28:39;;;;;;;5.33;3.53;;;9.00;99.90;;;;;;5013369;28;20480;-68
2021/11/13 02:31:09;;;;;;;11.43;3.57;;;9.20;99.90;;;;;;5017385;28;20562;-69
2021/11/13 02:33:37;;;;;;;5.77;3.63;;;9.10;99.90;;;;;;5011033;28;20885;-72
2021/11/13 02:36:06;;;;;;;6.37;3.77;;;9.10;99.90;;;;;;5017168;28;20514;-70
2021/11/13 02:38:36;;;;;;;8.80;4.20;;;9.10;99.90;;;;;;5000530;28;21551;-70
2021/11/13 02:41:06;;;;;;;9.00;2.43;;;9.00;99.90;;;;;;5013369;28;20473;-72
2021/11/13 02:43:34;;;;;;;3.97;3.43;;;9.20;99.90;;;;;;5007621;28;20427;-69
2021/11/13 02:46:05;;;;;;;3.93;3.57;;;9.10;99.90;;;;;;5021705;28;20455;-71
2021/11/13 02:48:35;;;;;;;4.13;3.63;;;9.10;99.90;;;;;;5015867;28;20439;-69
2021/11/13 02:51:02;;;;;;;7.63;3.70;;;9.00;99.90;;;;;;5012641;28;21008;-69
2021/11/13 02:53:30;;;;;;;4.03;2.70;;;9.00;99.90;;;;;;5016505;28;20969;-68
2021/11/13 02:56:01;;;;;;;5.57;3.40;;;9.10;99.90;;;;;;5013754;28;20571;-69
2021/11/13 02:58:28;;;;;;;4.73;4.30;;;9.10;99.90;;;;;;5019004;28;20459;-69
2021/11/13 03:00:57;;;;;;;9.07;3.83;;;9.20;99.90;;;;;;5013797;28;20481;-71
2021/11/13 03:03:24;;;;;;;4.80;3.13;;;9.20;99.90;;;;;;5015419;28;21008;-69
2021/11/13 03:05:54;;;;;;;14.97;5.23;;;9.10;99.90;;;;;;5003258;28;21269;-69
2021/11/13 03:08:23;;;;;;;8.53;3.20;;;9.10;99.90;;;;;;5005527;28;20837;-67
2021/11/13 03:10:51;;;;;;;3.90;3.40;;;9.20;99.90;;;;;;5000109;28;20460;-67
2021/11/13 03:13:20;;;;;;;4.60;3.63;;;9.30;99.90;;;;;;5009161;28;20472;-68
2021/11/13 03:15:48;;;;;;;4.30;3.40;;;9.20;99.90;;;;;;5004079;28;20880;-68
2021/11/13 03:18:15;;;;;;;12.10;4.70;;;9.20;99.90;;;;;;4999959;28;20471;-68
2021/11/13 03:20:44;;;;;;;6.30;4.70;;;9.10;99.90;;;;;;4995540;28;20905;-70
2021/11/13 03:23:12;;;;;;;6.97;4.17;;;9.10;99.90;;;;;;5002297;28;20472;-68
2021/11/13 03:25:42;;;;;;;6.33;4.50;;;9.10;99.90;;;;;;4999593;28;20435;-69
2021/11/13 03:28:12;;;;;;;7.37;3.33;;;9.10;99.90;;;;;;4998624;28;21320;-69
2021/11/13 03:30:41;;;;;;;9.40;4.07;;;8.90;99.90;;;;;;5000198;28;20443;-69
2021/11/13 03:33:09;;;;;;;4.93;3.70;;;8.80;99.90;;;;;;5006930;28;20476;-70
2021/11/13 03:35:37;;;;;;;6.03;3.30;;;8.90;99.90;;;;;;4997282;28;20468;-71
2021/11/13 03:38:07;;;;;;;9.47;5.47;;;8.80;99.90;;;;;;5000727;28;20484;-67
2021/11/13 03:40:35;;;;;;;8.57;3.90;;;8.70;99.90;;;;;;4995523;28;20570;-68
2021/11/13 03:43:02;;;;;;;7.43;5.23;;;8.70;99.90;;;;;;4996379;28;20468;-70
2021/11/13 03:45:29;;;;;;;9.47;4.27;;;8.70;99.90;;;;;;4994160;28;20528;-70
2021/11/13 03:47:58;;;;;;;7.60;5.70;;;8.60;99.90;;;;;;5003426;28;20478;-71
2021/11/13 03:50:25;;;;;;;6.97;5.23;;;8.60;99.90;;;;;;5001568;28;20622;-70
2021/11/13 03:52:53;;;;;;;12.63;6.10;;;8.60;99.90;;;;;;4994796;28;20450;-68
2021/11/13 03:55:20;;;;;;;5.97;2.90;;;8.60;99.90;;;;;;4998497;28;20598;-68
2021/11/13 03:57:47;;;;;;;9.20;4.83;;;8.50;99.90;;;;;;4995490;28;20657;-69
2021/11/13 04:00:15;;;;;;;11.10;6.80;;;8.50;99.90;;;;;;4999353;28;20488;-68
2021/11/13 04:02:44;;;;;;;8.60;4.63;;;8.50;99.90;;;;;;4995389;28;20909;-68
2021/11/13 04:05:13;;;;;;;10.30;4.17;;;8.60;99.90;;;;;;4999650;28;20454;-71
2021/11/13 04:07:40;;;;;;;8.83;5.07;;;8.30;99.90;;;;;;4999666;28;20718;-70
2021/11/13 04:10:09;;;;;;;4.83;2.90;;;8.30;99.90;;;;;;5001325;28;20445;-70
2021/11/13 04:12:38;;;;;;;7.60;4.17;;;8.30;99.90;;;;;;4997602;28;20555;-68
2021/11/13 04:15:06;;;;;;;8.13;3.80;;;8.20;99.90;;;;;;4996236;28;21102;-70
2021/11/13 04:17:33;;;;;;;7.97;5.03;;;8.10;99.90;;;;;;4998705;28;20567;-69
2021/11/13 04:20:00;;;;;;;7.27;4.10;;;8.10;99.90;;;;;;5005203;28;20894;-71
2021/11/13 04:22:29;;;;;;;8.90;5.10;;;8.10;99.90;;;;;;5009675;28;20444;-69
2021/11/13 04:24:56;;;;;;;7.33;4.00;;;8.00;99.90;;;;;;5000545;28;20499;-71
2021/11/13 04:27:23;;;;;;;5.90;4.03;;;8.00;99.90;;;;;;4995348;28;20592;-69
2021/11/13 04:29:50;;;;;;;3.40;2.60;;;7.90;99.90;;;;;;5002606;28;20539;-69
2021/11/13 04:32:17;;;;;;;9.80;4.70;;;7.90;99.90;;;;;;4996673;28;20467;-71
2021/11/13 04:34:49;;;;;;;12.53;5.30;;;8.00;99.90;;;;;;4994423;28;21020;-70
2021/11/13 04:37:18;;;;;;;6.37;3.97;;;8.10;99.90;;;;;;5001972;28;20498;-67
2021/11/13 04:39:47;;;;;;;4.50;3.53;;;8.10;99.90;;;;;;4991979;28;21011;-69
2021/11/13 04:42:15;;;;;;;7.10;5.20;;;8.10;99.90;;;;;;4998418;28;20471;-70
2021/11/13 04:44:42;;;;;;;8.53;4.57;;;8.10;99.90;;;;;;4994007;28;20518;-71
2021/11/13 04:47:10;;;;;;;6.20;4.30;;;8.20;99.90;;;;;;4996368;28;20700;-69
2021/11/13 04:49:37;;;;;;;5.73;3.80;;;8.20;99.90;;;;;;5001660;28;20426;-70
2021/11/13 04:52:06;;;;;;;7.30;4.73;;;8.30;99.90;;;;;;5000675;28;20432;-69
2021/11/13 04:54:34;;;;;;;7.33;5.80;;;8.30;99.90;;;;;;4991698;28;20485;-69
2021/11/13 04:57:03;;;;;;;8.83;4.23;;;8.30;99.90;;;;;;4990821;28;21383;-70
2021/11/13 04:59:30;;;;;;;8.73;5.80;;;8.30;99.90;;;;;;4988286;28;20454;-68
2021/11/13 05:01:57;;;;;;;6.33;4.17;;;8.40;99.90;;;;;;4995676;28;20634;-70
2021/11/13 05:04:24;;;;;;;7.00;4.90;;;8.60;99.90;;;;;;4999514;28;20478;-68
2021/11/13 05:06:52;;;;;;;9.40;5.33;;;8.50;99.90;;;;;;4997002;28;20423;-72
2021/11/13 05:09:18;;;;;;;8.17;5.80;;;8.60;99.90;;;;;;4994707;28;20954;-68
2021/11/13 05:11:45;;;;;;;11.20;6.13;;;8.50;99.90;;;;;;4992037;28;20435;-70
2021/11/13 05:14:14;;;;;;;10.93;5.40;;;8.40;99.90;;;;;;4998156;28;20499;-72
2021/11/13 05:16:41;;;;;;;7.90;4.50;;;8.50;99.90;;;;;;4998024;28;20451;-68
2021/11/13 05:19:08;;;;;;;7.60;4.47;;;8.50;99.90;;;;;;4993538;28;20484;-68
2021/11/13 05:21:35;;;;;;;5.43;3.73;;;8.60;99.90;;;;;;4990735;28;20502;-70
2021/11/13 05:24:02;;;;;;;6.77;3.27;;;8.60;99.90;;;;;;4987635;28;20499;-69
2021/11/13 05:26:29;;;;;;;6.43;3.97;;;8.70;99.90;;;;;;4998642;28;20526;-70
2021/11/13 05:28:56;;;;;;;13.23;6.87;;;8.70;99.90;;;;;;5006748;28;20611;-69
2021/11/13 05:31:25;;;;;;;6.70;3.70;;;8.50;99.90;;;;;;4995254;28;20531;-71
2021/11/13 05:33:52;;;;;;;5.80;4.00;;;8.60;99.90;;;;;;4994269;28;20452;-68
2021/11/13 05:36:19;;;;;;;6.70;4.90;;;8.60;99.90;;;;;;4997262;28;20432;-70
2021/11/13 05:38:46;;;;;;;4.57;3.13;;;8.60;99.90;;;;;;4996835;28;20576;-70
2021/11/13 05:41:13;;;;;;;8.60;5.20;;;8.60;99.90;;;;;;5006042;28;21658;-67
2021/11/13 05:43:39;;;;;;;7.40;3.50;;;8.50;99.90;;;;;;5002996;28;20526;-68
2021/11/13 05:46:06;;;;;;;5.60;3.97;;;8.50;99.90;;;;;;5001185;28;20495;-69
2021/11/13 05:48:35;;;;;;;8.50;5.23;;;8.60;99.90;;;;;;5001685;28;20508;-67
2021/11/13 05:51:02;;;;;;;7.37;4.33;;;8.70;99.90;;;;;;4998264;28;21622;-66
2021/11/13 05:53:29;;;;;;;5.67;3.87;;;8.60;99.90;;;;;;4997348;28;20592;-67
2021/11/13 05:55:56;;;;;;;6.67;4.07;;;8.70;99.90;;;;;;4996615;28;21227;-67
2021/11/13 05:58:23;;;;;;;6.83;2.57;;;8.70;99.90;;;;;;4997087;28;20479;-67
2021/11/13 06:00:50;;;;;;;7.07;5.10;;;8.80;99.90;;;;;;5001333;28;20785;-70
2021/11/13 06:03:17;;;;;;;6.90;4.33;;;8.60;99.90;;;;;;4997232;28;20570;-70
2021/11/13 06:05:46;;;;;;;5.37;2.93;;;8.60;99.90;;;;;;5003589;28;20511;-71
2021/11/13 06:08:13;;;;;;;7.50;3.90;;;8.60;99.90;;;;;;5003169;28;20487;-68
2021/11/13 06:10:40;;;;;;;5.50;3.60;;;8.60;99.90;;;;;;5000630;28;20988;-70
2021/11/13 06:13:07;;;;;;;3.37;2.70;;;8.60;99.90;;;;;;4989863;28;20554;-66
2021/11/13 06:15:34;;;;;;;6.17;3.67;;;8.60;99.90;;;;;;5000366;28;20439;-68
2021/11/13 06:18:02;;;;;;;3.63;2.27;;;8.60;99.90;;;;;;4997161;28;20457;-72
2021/11/13 06:20:29;;;;;;;7.57;4.90;;;8.60;99.90;;;;;;4999486;28;20515;-69
2021/11/13 06:22:57;;;;;;;5.43;3.50;;;8.60;99.90;;;;;;4999526;28;20538;-68
2021/11/13 06:25:24;;;;;;;9.67;4.10;;;8.70;99.90;;;;;;4998462;28;20488;-67
2021/11/13 06:27:51;;;;;;;4.60;3.00;;;8.70;99.90;;;;;;5003625;28;20446;-68
2021/11/13 06:30:19;;;;;;;3.80;2.80;;;8.60;99.90;;;;;;5002610;28;20956;-69
2021/11/13 06:32:50;;;;;;;3.10;2.77;;;8.60;99.90;;;;;;5003372;28;20948;-68
2021/11/13 06:35:18;;;;;;;3.83;3.53;;;8.70;99.90;;;;;;5010035;28;20452;-70
2021/11/13 06:37:45;;;;;;;7.60;3.73;;;8.80;99.90;;;;;;5014520;28;20470;-68
2021/11/13 06:40:18;;;;;;;7.30;2.60;;;8.90;99.90;;;;;;5017823;28;20499;-68
2021/11/13 06:42:45;;;;;;;6.37;3.57;;;8.80;99.90;;;;;;5018816;28;20472;-72
2021/11/13 06:45:13;;;;;;;4.50;2.63;;;8.80;99.90;;;;;;5017490;28;20461;-71
2021/11/13 06:47:41;;;;;;;5.23;2.17;;;8.60;99.90;;;;;;5016391;28;20516;-69
2021/11/13 06:50:10;;;;;;;5.30;3.10;;;8.70;99.90;;;;;;5021779;28;20472;-71
2021/11/13 06:52:37;;;;;;;5.83;3.70;;;8.70;99.90;;;;;;5018101;28;20936;-67
2021/11/13 06:55:05;;;;;;;6.57;3.67;;;8.90;99.90;;;;;;5019990;28;20546;-68
2021/11/13 06:57:33;;;;;;;5.93;3.17;;;8.80;99.90;;;;;;4995938;28;20582;-70
2021/11/13 07:00:01;;;;;;;6.87;4.10;;;8.90;99.90;;;;;;5013771;28;20796;-70
2021/11/13 07:02:28;;;;;;;6.33;2.13;;;8.90;99.90;;;;;;5019045;28;20480;-68
2021/11/13 07:04:55;;;;;;;3.57;2.70;;;9.00;99.90;;;;;;5021132;28;20502;-68
2021/11/13 07:07:22;;;;;;;5.60;4.63;;;8.90;99.90;;;;;;5009630;28;20487;-68
2021/11/13 07:09:49;;;;;;;11.27;3.33;;;8.80;99.90;;;;;;5008999;28;20977;-70
2021/11/13 07:12:16;;;;;;;5.60;3.10;;;8.70;99.90;;;;;;5001085;28;20432;-68
2021/11/13 07:14:44;;;;;;;4.20;2.83;;;8.80;99.90;;;;;;5015230;28;20467;-70
2021/11/13 07:17:11;;;;;;;6.67;3.90;;;8.60;99.90;;;;;;5016412;28;27113;-68
2021/11/13 07:19:38;;;;;;;4.20;3.80;;;8.70;99.90;;;;;;5013876;28;20480;-71
2021/11/13 07:22:05;;;;;;;4.07;3.10;;;8.80;99.90;;;;;;5012033;28;20977;-70
2021/11/13 07:24:32;;;;;;;5.00;2.80;;;8.80;99.90;;;;;;5012652;28;20464;-68
2021/11/13 07:26:59;;;;;;;6.17;2.60;;;8.80;99.90;;;;;;5009186;28;20857;-69
2021/11/13 07:29:28;;;;;;;4.43;3.60;;;8.80;99.90;;;;;;5004396;28;20468;-68
2021/11/13 07:31:56;;;;;;;4.57;2.90;;;8.90;99.90;;;;;;5022510;28;20445;-69
2021/11/13 07:34:24;;;;;;;11.60;3.83;;;8.90;99.90;;;;;;5014186;28;20522;-69
2021/11/13 07:36:51;;;;;;;3.97;3.00;;;9.00;99.90;;;;;;5000882;28;20579;-67
2021/11/13 07:39:20;;;;;;;4.70;3.17;;;8.90;99.90;;;;;;5000777;28;20449;-71
2021/11/13 07:41:47;;;;;;;3.90;2.83;;;8.90;99.90;;;;;;5002416;28;20447;-71
2021/11/13 07:44:14;;;;;;;1.63;1.53;;;8.90;99.90;;;;;;5013218;28;20435;-70
2021/11/13 07:46:41;;;;;;;4.43;3.30;;;8.90;99.90;;;;;;5016283;28;20506;-68
2021/11/13 07:49:10;;;;;;;9.83;3.83;;;9.00;99.90;;;;;;5024355;28;20519;-66
2021/11/13 07:51:37;;;;;;;7.17;4.83;;;9.00;99.90;;;;;;5015174;28;20453;-72
2021/11/13 07:54:04;;;;;;;8.40;5.10;;;9.00;99.90;;;;;;5020793;28;20514;-68
2021/11/13 07:56:31;;;;;;;4.33;3.90;;;9.00;99.90;;;;;;5017494;28;21001;-69
2021/11/13 07:58:58;;;;;;;4.17;3.27;;;9.00;99.90;;;;;;5015893;28;20526;-68
2021/11/13 08:01:26;;;;;;;6.07;4.50;;;9.10;99.90;;;;;;5023404;28;20455;-70
2021/11/13 08:03:53;;;;;;;3.20;2.70;;;9.10;99.90;;;;;;5025184;28;20456;-69
2021/11/13 08:06:21;;;;;;;7.37;4.13;;;9.30;99.90;;;;;;5021208;28;21209;-71
2021/11/13 08:08:49;;;;;;;4.33;2.90;;;9.20;99.90;;;;;;5021449;28;20450;-69
2021/11/13 08:11:16;;;;;;;10.67;3.10;;;9.20;99.90;;;;;;5016095;28;20430;-69
2021/11/13 08:13:43;;;;;;;6.90;2.57;;;9.30;99.90;;;;;;5020028;28;20480;-69
2021/11/13 08:16:11;;;;;;;5.63;3.87;;;9.30;99.90;;;;;;5027088;28;21079;-70
2021/11/13 08:18:38;;;;;;;4.00;3.00;;;9.30;99.90;;;;;;5028285;28;20943;-69
2021/11/13 08:21:05;;;;;;;8.30;4.33;;;9.40;99.90;;;;;;5018807;28;20456;-70
2021/11/13 08:23:34;;;;;;;9.67;2.80;;;9.30;99.90;;;;;;5024245;28;21086;-69
2021/11/13 08:26:02;;;;;;;6.83;3.43;;;9.30;99.90;;;;;;5022047;28;20539;-69
2021/11/13 08:28:29;;;;;;;4.47;3.43;;;9.30;99.90;;;;;;5010805;28;20969;-69
2021/11/13 08:30:56;;;;;;;4.97;3.33;;;9.30;99.90;;;;;;5022082;28;20467;-69
2021/11/13 08:33:24;;;;;;;3.93;3.00;;;9.30;99.90;;;;;;5016408;28;20431;-68
2021/11/13 08:35:51;;;;;;;5.20;3.10;;;9.40;99.90;;;;;;5019731;28;20488;-68
2021/11/13 08:38:21;;;;;;;3.43;3.13;;;9.30;99.90;;;;;;5013901;28;20551;-68
2021/11/13 08:40:51;;;;;;;4.90;3.30;;;9.20;99.90;;;;;;5014026;28;20539;-69
2021/11/13 08:43:19;;;;;;;7.83;3.63;;;9.40;99.90;;;;;;5014543;28;20476;-70
2021/11/13 08:45:46;;;;;;;3.50;3.17;;;9.50;99.90;;;;;;5014835;28;20550;-67
2021/11/13 08:48:14;;;;;;;5.53;4.60;;;9.40;99.90;;;;;;5006744;28;20515;-69
2021/11/13 08:50:41;;;;;;;5.00;3.03;;;9.30;99.90;;;;;;5020338;28;20511;-69
2021/11/13 08:53:09;;;;;;;3.03;2.80;;;9.30;99.90;;;;;;5022086;28;20530;-67
2021/11/13 08:55:38;;;;;;;7.00;4.73;;;9.40;99.90;;;;;;5020088;28;20492;-69
2021/11/13 08:58:09;;;;;;;6.33;3.63;;;9.40;99.90;;;;;;5024980;28;20930;-70
2021/11/13 09:00:40;;;;;;;4.70;2.27;;;9.40;99.90;;;;;;5024009;28;20476;-67
2021/11/13 09:03:14;;;;;;;6.97;4.10;;;9.50;99.90;;;;;;5020327;28;20532;-70
2021/11/13 09:05:41;;;;;;;6.70;4.20;;;9.40;99.90;;;;;;5020347;28;20882;-68
2021/11/13 09:08:09;;;;;;;5.87;4.13;;;9.60;99.90;;;;;;5028363;28;20472;-68
2021/11/13 09:10:37;;;;;;;4.40;2.77;;;9.70;99.90;;;;;;5022224;28;21052;-68
2021/11/13 09:13:06;;;;;;;8.17;4.60;;;9.70;99.90;;;;;;5013942;28;20456;-69
2021/11/13 09:15:35;;;;;;;7.23;4.77;;;9.70;99.90;;;;;;5009605;28;20545;-70
2021/11/13 09:18:03;;;;;;;6.43;5.07;;;9.80;99.90;;;;;;5022146;28;20473;-69
2021/11/13 09:20:30;;;;;;;4.33;3.93;;;9.80;99.90;;;;;;5038526;28;20466;-72
2021/11/13 09:22:58;;;;;;;7.77;4.70;;;10.00;99.90;;;;;;5033882;28;20485;-68
2021/11/13 09:25:26;;;;;;;6.83;4.70;;;10.00;99.90;;;;;;5028037;28;20513;-68
2021/11/13 09:27:53;;;;;;;9.60;4.93;;;10.10;99.90;;;;;;5017950;28;20539;-68
2021/11/13 09:30:26;;;;;;;4.57;1.90;;;10.20;99.90;;;;;;5012583;28;20484;-70
2021/11/13 09:32:54;;;;;;;11.80;5.17;;;10.30;99.90;;;;;;5023038;28;20472;-68
2021/11/13 09:35:22;;;;;;;6.97;5.00;;;10.20;99.90;;;;;;5019564;28;20448;-68
2021/11/13 09:37:50;;;;;;;6.60;3.80;;;10.20;99.90;;;;;;5023647;28;20484;-68
2021/11/13 09:40:19;;;;;;;7.60;4.83;;;10.30;99.90;;;;;;5019791;28;20476;-69
2021/11/13 09:42:46;;;;;;;5.97;3.73;;;10.30;99.90;;;;;;5022668;28;20626;-69
2021/11/13 09:45:14;;;;;;;5.73;4.97;;;10.40;99.90;;;;;;5022346;28;20814;-68
2021/11/13 09:47:43;;;;;;;6.40;4.00;;;10.40;99.90;;;;;;5023859;28;20539;-71
2021/11/13 09:50:11;;;;;;;9.53;4.90;;;10.50;99.90;;;;;;5027881;28;20452;-69
2021/11/13 09:52:38;;;;;;;5.60;3.30;;;10.70;99.90;;;;;;5028832;28;20457;-69
2021/11/13 09:55:07;;;;;;;6.50;4.30;;;10.80;99.90;;;;;;5018009;28;20453;-70
2021/11/13 09:57:37;;;;;;;6.50;3.60;;;10.80;99.90;;;;;;5016198;28;20530;-71
2021/11/13 10:00:05;;;;;;;7.73;3.47;;;10.60;99.90;;;;;;5025199;28;20499;-68
2021/11/13 10:02:32;;;;;;;4.13;2.93;;;10.50;99.90;;;;;;5019950;28;20481;-68
2021/11/13 10:05:01;;;;;;;2.67;2.47;;;10.60;99.90;;;;;;5022252;28;20457;-69
2021/11/13 10:07:30;;;;;;;6.67;4.83;;;10.60;99.90;;;;;;5019567;28;20451;-68
2021/11/13 10:09:57;;;;;;;6.30;3.13;;;10.90;99.90;;;;;;4999046;28;20505;-68
2021/11/13 10:12:34;;;;;;;6.70;4.00;;;11.00;99.90;;;;;;4998634;28;20547;-69
2021/11/13 10:15:01;;;;;;;4.57;3.37;;;11.00;99.90;;;;;;5007802;28;20452;-68
2021/11/13 10:17:28;;;;;;;5.20;3.80;;;11.10;99.90;;;;;;5014862;28;20483;-69
2021/11/13 10:19:55;;;;;;;7.30;3.60;;;11.00;99.90;;;;;;5013022;28;20476;-71
2021/11/13 10:22:24;;;;;;;3.83;2.97;;;11.00;99.90;;;;;;5012711;28;20543;-69
2021/11/13 10:24:54;;;;;;;5.00;2.90;;;10.90;99.90;;;;;;4998449;28;20962;-70
2021/11/13 10:27:23;;;;;;;5.90;3.00;;;10.80;99.90;;;;;;5007143;28;20544;-68
2021/11/13 10:29:51;;;;;;;4.00;2.43;;;10.80;99.90;;;;;;5007428;28;20551;-72
2021/11/13 10:32:20;;;;;;;2.70;2.17;;;10.50;99.90;;;;;;5004505;28;22722;-69
2021/11/13 10:34:49;;;;;;;3.50;2.10;;;10.50;99.90;;;;;;5007352;28;20496;-69
2021/11/13 10:37:18;;;;;;;4.87;3.03;;;10.50;99.90;;;;;;5017929;28;20549;-70
2021/11/13 10:39:48;;;;;;;5.90;3.37;;;10.70;99.90;;;;;;5024474;28;21054;-68
2021/11/13 10:42:18;;;;;;;2.37;2.17;;;10.70;99.90;;;;;;5022290;28;20453;-71
2021/11/13 10:44:48;;;;;;;4.43;3.10;;;10.80;99.90;;;;;;5018512;28;20471;-69
2021/11/13 10:47:18;;;;;;;3.80;2.40;;;10.90;99.90;;;;;;5019566;28;20468;-70
2021/11/13 10:49:48;;;;;;;5.77;3.30;;;10.90;99.90;;;;;;5005593;28;20531;-69
2021/11/13 10:52:16;;;;;;;3.90;2.80;;;10.80;99.90;;;;;;5005787;28;20460;-69
2021/11/13 10:54:47;;;;;;;2.43;2.10;;;10.90;99.90;;;;;;5012854;28;20461;-70
2021/11/13 10:57:14;;;;;;;3.67;3.37;;;11.00;99.90;;;;;;5024616;28;20477;-68
2021/11/13 10:59:44;;;;;;;6.27;4.73;;;10.90;99.90;;;;;;5026639;28;22150;-69
2021/11/13 11:02:13;;;;;;;5.90;2.80;;;10.90;99.90;;;;;;5018003;28;20472;-70
2021/11/13 11:04:43;;;;;;;3.53;3.17;;;10.80;99.90;;;;;;4999689;28;20468;-70
2021/11/13 11:07:15;;;;;;;8.00;2.73;;;10.80;99.90;;;;;;5009116;28;21025;-70
2021/11/13 11:09:45;;;;;;;4.80;3.50;;;10.90;99.90;;;;;;4998180;28;20492;-68
2021/11/13 11:12:15;;;;;;;4.23;3.40;;;10.90;99.90;;;;;;5005104;28;20461;-69
2021/11/13 11:14:45;;;;;;;6.30;3.40;;;10.90;99.90;;;;;;5022330;28;20538;-69
2021/11/13 11:17:15;;;;;;;5.53;3.40;;;10.90;99.90;;;;;;5024709;28;20936;-70
2021/11/13 11:19:45;;;;;;;4.50;2.50;;;10.90;99.90;;;;;;5033092;28;20965;-71
2021/11/13 11:22:13;;;;;;;3.90;2.90;;;11.00;99.90;;;;;;5031198;28;20838;-68
2021/11/13 11:24:42;;;;;;;4.17;2.80;;;10.90;99.90;;;;;;5024344;28;20511;-68
2021/11/13 11:27:15;;;;;;;3.80;2.97;;;10.80;99.90;;;;;;5020930;28;20489;-68
2021/11/13 11:29:51;;;;;;;8.20;2.77;;;10.80;99.90;;;;;;5024734;28;20464;-69
2021/11/13 11:32:21;;;;;;;5.20;3.87;;;10.70;99.90;;;;;;5025986;28;20471;-69
2021/11/13 11:34:49;;;;;;;4.33;3.30;;;10.70;99.90;;;;;;5026680;28;20448;-69
2021/11/13 11:37:20;;;;;;;6.23;4.00;;;10.70;99.90;;;;;;5021928;28;20539;-67
2021/11/13 11:39:50;;;;;;;4.37;3.00;;;10.80;99.90;;;;;;5024707;28;20453;-70
2021/11/13 11:42:19;;;;;;;5.07;2.80;;;10.80;99.90;;;;;;5019062;28;20457;-68
2021/11/13 11:44:48;;;;;;;5.80;3.63;;;10.70;99.90;;;;;;5022869;28;21405;-69
2021/11/13 11:47:17;;;;;;;5.00;3.20;;;10.70;99.90;;;;;;5024731;28;20469;-68
2021/11/13 11:49:47;;;;;;;4.73;2.57;;;10.80;99.90;;;;;;5027087;28;20452;-68
2021/11/13 11:52:17;;;;;;;5.90;2.87;;;10.90;99.90;;;;;;5020450;28;20473;-67
2021/11/13 11:54:45;;;;;;;5.97;3.70;;;10.80;99.90;;;;;;5028110;28;20432;-68
2021/11/13 11:57:12;;;;;;;4.77;3.33;;;10.70;99.90;;;;;;5027547;28;20472;-68
2021/11/13 11:59:42;;;;;;;3.37;2.73;;;10.70;99.90;;;;;;5023721;28;20608;-70
2021/11/13 12:02:12;;;;;;;4.73;3.73;;;10.80;99.90;;;;;;5023262;28;20462;-70
2021/11/13 12:04:40;;;;;;;4.37;3.20;;;10.90;99.90;;;;;;5028913;28;20495;-72
2021/11/13 12:07:09;;;;;;;3.50;2.60;;;10.90;99.90;;;;;;5037290;28;20445;-69
2021/11/13 12:09:57;;;;;;;7.70;3.63;;;11.00;99.90;;;;;;5028157;28;20419;-69
2021/11/13 12:12:25;;;;;;;3.57;3.03;;;11.10;99.90;;;;;;5023985;28;20954;-69
2021/11/13 12:14:55;;;;;;;4.20;3.13;;;11.10;99.90;;;;;;5025397;28;20988;-68
2021/11/13 12:17:31;;;;;;;6.97;3.50;;;11.10;99.90;;;;;;5023504;28;20473;-68
2021/11/13 12:20:30;;;;;;;5.93;3.77;;;10.80;99.90;;;;;;5020725;28;21115;-70
2021/11/13 12:23:04;;;;;;;2.80;2.60;;;10.80;99.90;;;;;;4979914;28;20461;-67
2021/11/13 12:25:33;;;;;;;6.10;4.20;;;10.90;99.90;;;;;;5017346;28;20937;-69
2021/11/13 12:28:15;;;;;;;3.27;2.00;;;11.00;99.90;;;;;;5022526;28;20469;-68
2021/11/13 12:30:56;;;;;;;4.10;3.70;;;11.20;99.90;;;;;;5024994;28;20460;-67
2021/11/13 12:33:56;;;;;;;9.03;4.07;;;11.10;99.90;;;;;;5020624;28;20452;-68
2021/11/13 12:36:28;;;;;;;5.43;3.90;;;11.00;99.90;;;;;;5018926;28;20518;-68
2021/11/13 12:39:13;;;;;;;7.43;4.13;;;11.00;99.90;;;;;;5027655;28;20467;-68
2021/11/13 12:41:44;;;;;;;5.50;4.00;;;11.10;99.90;;;;;;5022213;28;20508;-68
2021/11/13 12:44:19;;;;;;;5.03;3.30;;;11.10;99.90;;;;;;5021318;28;20455;-68
2021/11/13 12:46:50;;;;;;;4.17;3.30;;;11.10;99.90;;;;;;5024671;28;20451;-71
2021/11/13 12:49:29;;;;;;;6.83;4.20;;;11.00;99.90;;;;;;5024130;28;20916;-68
2021/11/13 12:52:47;;;;;;;7.70;4.63;;;11.00;99.90;;;;;;5023419;28;20452;-69
2021/11/13 12:55:25;;;;;;;4.60;4.03;;;10.90;99.90;;;;;;5001261;28;20511;-69
2021/11/13 12:58:10;;;;;;;6.83;5.53;;;11.00;99.90;;;;;;5027097;28;20475;-69
2021/11/13 13:00:41;;;;;;;6.77;4.50;;;11.00;99.90;;;;;;5024441;28;20486;-70